createdAt,value
2023-04-17T00:00:48.020Z,38.13
2023-04-17T00:03:17.051Z,39.88
2023-04-17T00:05:46.156Z,40.85
2023-04-17T00:08:13.340Z,37.92
2023-04-17T00:10:40.312Z,38.80
2023-04-17T00:13:07.322Z,39.40
2023-04-17T00:15:34.286Z,38.05
2023-04-17T00:18:01.365Z,36.30
2023-04-17T00:20:28.499Z,38.40
2023-04-17T00:22:55.669Z,40.03
2023-04-17T00:25:22.669Z,38.03
2023-04-17T00:27:50.622Z,40.45
2023-04-17T00:30:17.857Z,42.22
2023-04-17T00:32:45.054Z,41.55
2023-04-17T00:35:12.114Z,43.58
2023-04-17T00:37:39.767Z,40.58
2023-04-17T00:40:07.710Z,40.78
2023-04-17T00:42:34.784Z,41.65
2023-04-17T00:45:01.924Z,40.70
2023-04-17T00:47:29.002Z,42.53
2023-04-17T00:49:56.089Z,42.28
2023-04-17T00:52:30.392Z,42.05
2023-04-17T00:55:00.207Z,39.58
2023-04-17T00:57:27.693Z,44.67
2023-04-17T00:59:57.867Z,45.22
2023-04-17T01:02:26.175Z,43.97
2023-04-17T01:04:53.359Z,47.20
2023-04-17T01:07:20.549Z,47.40
2023-04-17T01:09:47.648Z,48.55
2023-04-17T01:12:25.692Z,46.03
2023-04-17T01:14:54.424Z,43.78
2023-04-17T01:17:22.166Z,44.47
2023-04-17T01:19:50.063Z,46.33
2023-04-17T01:22:17.122Z,47.10
2023-04-17T01:24:44.422Z,50.88
2023-04-17T01:27:15.381Z,47.78
2023-04-17T01:29:45.379Z,45.65
2023-04-17T01:32:12.567Z,50.65
2023-04-17T01:34:39.714Z,49.80
2023-04-17T01:37:07.030Z,49.65
2023-04-17T01:39:35.473Z,52.63
2023-04-17T01:42:02.466Z,52.60
2023-04-17T01:44:29.458Z,53.92
2023-04-17T01:46:56.628Z,53.67
2023-04-17T01:49:23.688Z,54.83
2023-04-17T01:51:50.889Z,52.10
2023-04-17T01:54:17.861Z,52.08
2023-04-17T01:56:44.822Z,57.08
2023-04-17T01:59:12.009Z,54.90
2023-04-17T02:01:39.396Z,56.13
2023-04-17T02:04:06.543Z,54.33
2023-04-17T02:06:33.714Z,55.42
2023-04-17T02:09:01.058Z,54.97
2023-04-17T02:11:28.273Z,57.08
2023-04-17T02:13:55.342Z,57.97
2023-04-17T02:16:22.940Z,58.53
2023-04-17T02:18:51.008Z,57.88
2023-04-17T02:21:18.312Z,56.55
2023-04-17T02:23:45.495Z,56.30
2023-04-17T02:26:12.553Z,57.15
2023-04-17T02:28:39.931Z,58.67
2023-04-17T02:31:08.923Z,60.33
2023-04-17T02:33:36.887Z,58.08
2023-04-17T02:36:06.292Z,62.33
2023-04-17T02:38:39.575Z,59.30
2023-04-17T02:41:07.000Z,61.08
2023-04-17T02:43:35.450Z,61.30
2023-04-17T02:46:02.643Z,62.05
2023-04-17T02:48:30.283Z,61.70
2023-04-17T02:50:58.865Z,64.60
2023-04-17T02:53:25.959Z,64.22
2023-04-17T02:55:53.235Z,66.90
2023-04-17T02:58:23.044Z,67.43
2023-04-17T03:00:50.273Z,63.85
2023-04-17T03:03:19.379Z,65.55
2023-04-17T03:05:46.736Z,63.97
2023-04-17T03:08:13.715Z,67.68
2023-04-17T03:10:46.537Z,63.72
2023-04-17T03:13:13.507Z,65.47
2023-04-17T03:15:40.719Z,62.97
2023-04-17T03:18:08.184Z,61.50
2023-04-17T03:20:35.433Z,65.95
2023-04-17T03:23:02.669Z,59.10
2023-04-17T03:25:29.661Z,63.22
2023-04-17T03:27:56.729Z,62.70
2023-04-17T03:30:29.742Z,65.50
2023-04-17T03:33:00.161Z,63.92
2023-04-17T03:35:30.069Z,66.38
2023-04-17T03:37:57.144Z,67.03
2023-04-17T03:40:24.482Z,65.07
2023-04-17T03:42:51.566Z,68.43
2023-04-17T03:45:18.604Z,67.07
2023-04-17T03:47:47.611Z,68.60
2023-04-17T03:50:15.498Z,65.93
2023-04-17T03:52:49.058Z,64.15
2023-04-17T03:55:17.493Z,68.47
2023-04-17T03:57:48.481Z,66.32
2023-04-17T04:00:16.272Z,66.30
2023-04-17T04:02:48.017Z,68.72
2023-04-17T04:05:20.016Z,65.15
2023-04-17T04:07:47.671Z,66.00
2023-04-17T04:10:21.546Z,63.60
2023-04-17T04:12:48.595Z,62.65
2023-04-17T04:15:16.307Z,66.03
2023-04-17T04:17:45.616Z,69.40
2023-04-17T04:20:12.737Z,65.75
2023-04-17T04:22:41.590Z,66.38
2023-04-17T04:25:08.870Z,65.88
2023-04-17T04:28:01.592Z,65.70
2023-04-17T04:30:35.859Z,60.65
2023-04-17T04:33:09.375Z,60.20
2023-04-17T04:35:37.729Z,61.40
2023-04-17T04:38:06.080Z,62.22
2023-04-17T04:40:38.290Z,60.85
2023-04-17T04:43:06.827Z,64.78
2023-04-17T04:45:41.208Z,55.15
2023-04-17T04:48:08.337Z,53.38
2023-04-17T04:50:35.501Z,50.30
2023-04-17T04:53:02.614Z,53.03
2023-04-17T04:55:52.410Z,48.15
2023-04-17T04:58:20.323Z,50.22
2023-04-17T05:00:49.180Z,50.63
2023-04-17T05:03:24.369Z,44.92
2023-04-17T05:05:53.152Z,50.00
2023-04-17T05:08:25.149Z,48.50
2023-04-17T05:11:01.449Z,53.38
2023-04-17T05:13:30.365Z,50.80
2023-04-17T05:16:00.302Z,51.78
2023-04-17T05:18:29.436Z,49.40
2023-04-17T05:20:56.547Z,50.67
2023-04-17T05:23:26.220Z,50.78
2023-04-17T05:25:53.312Z,49.65
2023-04-17T05:28:20.325Z,47.20
2023-04-17T05:30:53.892Z,51.15
2023-04-17T05:33:28.916Z,48.10
2023-04-17T05:36:00.519Z,49.70
2023-04-17T05:38:27.823Z,51.20
2023-04-17T05:40:54.885Z,47.58
2023-04-17T05:43:21.950Z,49.72
2023-04-17T05:45:49.306Z,48.20
2023-04-17T05:48:16.501Z,45.67
2023-04-17T05:50:43.530Z,48.13
2023-04-17T05:53:10.787Z,46.45
2023-04-17T05:55:48.590Z,46.33
2023-04-17T05:58:23.611Z,42.13
2023-04-17T06:00:55.631Z,42.53
2023-04-17T06:03:23.761Z,44.83
2023-04-17T06:05:58.252Z,42.35
2023-04-17T06:08:26.514Z,46.63
2023-04-17T06:10:54.005Z,44.80
2023-04-17T06:13:21.309Z,46.90
2023-04-17T06:15:51.518Z,44.80
2023-04-17T06:18:18.981Z,45.03
2023-04-17T06:20:46.772Z,43.00
2023-04-17T06:23:13.919Z,44.83
2023-04-17T06:25:42.952Z,44.95
2023-04-17T06:28:10.287Z,43.95
2023-04-17T06:30:38.226Z,43.42
2023-04-17T06:33:06.552Z,40.75
2023-04-17T06:35:35.258Z,41.35
2023-04-17T06:38:12.084Z,42.33
2023-04-17T06:40:39.185Z,41.83
2023-04-17T06:43:07.424Z,41.65
2023-04-17T06:45:42.101Z,43.53
2023-04-17T06:48:09.365Z,45.33
2023-04-17T06:50:36.629Z,43.30
2023-04-17T06:53:03.673Z,43.30
2023-04-17T06:55:30.758Z,45.83
2023-04-17T06:57:57.871Z,42.20
2023-04-17T07:00:25.062Z,43.20
2023-04-17T07:02:52.222Z,44.28
2023-04-17T07:05:19.544Z,42.78
2023-04-17T07:07:46.640Z,43.13
2023-04-17T07:10:15.871Z,40.38
2023-04-17T07:12:43.259Z,38.35
2023-04-17T07:15:11.194Z,39.58
2023-04-17T07:17:38.222Z,36.88
2023-04-17T07:20:07.379Z,35.90
2023-04-17T07:22:35.475Z,36.33
2023-04-17T07:25:02.487Z,37.78
2023-04-17T07:27:29.512Z,37.63
2023-04-17T07:29:56.543Z,35.75
2023-04-17T07:32:27.970Z,38.28
2023-04-17T07:34:54.968Z,38.10
2023-04-17T07:37:22.021Z,35.13
2023-04-17T07:39:50.546Z,39.17
2023-04-17T07:42:17.721Z,37.85
2023-04-17T07:44:45.493Z,39.33
2023-04-17T07:47:12.524Z,41.00
2023-04-17T07:49:40.493Z,35.53
2023-04-17T07:52:07.766Z,36.35
2023-04-17T07:54:34.890Z,35.80
2023-04-17T07:57:02.860Z,36.60
2023-04-17T07:59:30.636Z,35.38
2023-04-17T08:01:58.011Z,35.70
2023-04-17T08:04:26.176Z,34.10
2023-04-17T08:06:53.459Z,33.92
2023-04-17T08:09:23.267Z,34.72
2023-04-17T08:11:56.969Z,33.45
2023-04-17T08:14:25.341Z,34.85
2023-04-17T08:16:52.756Z,33.42
2023-04-17T08:19:19.829Z,40.38
2023-04-17T08:21:48.301Z,33.97
2023-04-17T08:24:17.863Z,32.33
2023-04-17T08:26:46.475Z,34.55
2023-04-17T08:29:13.733Z,33.33
2023-04-17T08:31:41.317Z,33.90
2023-04-17T08:34:14.378Z,33.30
2023-04-17T08:36:43.009Z,35.00
2023-04-17T08:39:12.117Z,35.63
2023-04-17T08:42:05.416Z,34.10
2023-04-17T08:44:32.514Z,34.40
2023-04-17T08:46:59.660Z,35.08
2023-04-17T08:49:31.089Z,35.03
2023-04-17T08:51:58.065Z,34.85
2023-04-17T08:54:25.481Z,34.60
2023-04-17T08:56:53.409Z,36.20
2023-04-17T08:59:20.362Z,36.65
2023-04-17T09:02:05.659Z,33.30
2023-04-17T09:04:44.550Z,33.45
2023-04-17T09:07:13.802Z,32.15
2023-04-17T09:09:54.649Z,32.63
2023-04-17T09:12:24.608Z,31.85
2023-04-17T09:14:52.358Z,32.35
2023-04-17T09:17:21.002Z,35.13
2023-04-17T09:20:09.815Z,34.38
2023-04-17T09:22:40.282Z,44.75
2023-04-17T09:25:20.969Z,33.88
2023-04-17T09:27:48.241Z,33.88
2023-04-17T09:30:15.374Z,32.97
2023-04-17T09:32:42.434Z,32.20
2023-04-17T09:35:09.450Z,34.40
2023-04-17T09:37:53.280Z,32.25
2023-04-17T09:40:22.806Z,31.00
2023-04-17T09:43:01.286Z,31.13
2023-04-17T09:45:35.500Z,30.25
2023-04-17T09:48:13.230Z,28.55
2023-04-17T09:50:40.965Z,28.25
2023-04-17T09:53:09.026Z,28.27
2023-04-17T09:55:38.002Z,27.90
2023-04-17T09:58:07.439Z,27.23
2023-04-17T10:00:36.617Z,26.13
2023-04-17T10:03:04.690Z,27.42
2023-04-17T10:05:32.459Z,24.17
2023-04-17T10:07:59.989Z,25.42
2023-04-17T10:10:34.002Z,23.15
2023-04-17T10:13:06.883Z,24.40
2023-04-17T10:15:35.468Z,23.23
2023-04-17T10:18:23.674Z,23.65
2023-04-17T10:20:53.603Z,24.55
2023-04-17T10:23:35.863Z,21.38
2023-04-17T10:26:24.949Z,21.63
2023-04-17T10:28:53.756Z,20.45
2023-04-17T10:31:23.239Z,19.75
2023-04-17T10:33:52.961Z,19.58
2023-04-17T10:36:38.389Z,20.23
2023-04-17T10:39:17.992Z,19.45
2023-04-17T10:42:18.039Z,18.63
2023-04-17T10:44:50.725Z,17.92
2023-04-17T10:47:22.168Z,18.33
2023-04-17T10:49:55.961Z,17.35
2023-04-17T10:52:32.276Z,18.92
2023-04-17T10:55:16.240Z,17.00
2023-04-17T10:58:03.123Z,19.75
2023-04-17T11:00:31.235Z,15.98
2023-04-17T11:03:00.504Z,17.00
2023-04-17T11:05:27.940Z,16.98
2023-04-17T11:07:55.158Z,17.85
2023-04-17T11:10:23.028Z,16.90
2023-04-17T11:12:58.735Z,18.58
2023-04-17T11:15:30.632Z,17.33
2023-04-17T11:17:59.598Z,17.17
2023-04-17T11:20:32.461Z,16.42
2023-04-17T11:23:05.642Z,15.73
2023-04-17T11:25:34.582Z,15.25
2023-04-17T11:28:06.023Z,14.98
2023-04-17T11:30:42.168Z,15.05
2023-04-17T11:33:09.410Z,13.77
2023-04-17T11:35:41.624Z,13.05
2023-04-17T11:38:20.757Z,15.27
2023-04-17T11:40:56.427Z,16.30
2023-04-17T11:43:24.277Z,16.05
2023-04-17T11:45:57.454Z,16.63
2023-04-17T11:48:29.416Z,19.80
2023-04-17T11:51:03.219Z,15.98
2023-04-17T11:53:32.173Z,15.50
2023-04-17T11:56:19.804Z,15.38
2023-04-17T11:58:49.349Z,16.58
2023-04-17T12:01:17.987Z,15.02
2023-04-17T12:03:45.852Z,15.00
2023-04-17T12:06:13.482Z,13.82
2023-04-17T12:08:53.580Z,17.70
2023-04-17T12:11:32.859Z,14.98
2023-04-17T12:14:01.403Z,16.27
2023-04-17T12:16:29.390Z,15.65
2023-04-17T12:18:57.187Z,15.02
2023-04-17T12:21:24.246Z,15.75
2023-04-17T12:23:51.696Z,15.13
2023-04-17T12:26:18.630Z,16.55
2023-04-17T12:28:45.759Z,15.45
2023-04-17T12:31:12.925Z,15.75
2023-04-17T12:33:39.875Z,15.18
2023-04-17T12:36:07.604Z,15.80
2023-04-17T12:38:34.903Z,14.23
2023-04-17T12:41:01.936Z,15.05
2023-04-17T12:43:28.994Z,16.52
2023-04-17T12:45:58.225Z,15.05
2023-04-17T12:48:25.738Z,14.68
2023-04-17T12:50:53.277Z,15.02
2023-04-17T12:53:20.473Z,15.23
2023-04-17T12:55:47.455Z,14.13
2023-04-17T12:58:15.252Z,15.43
2023-04-17T13:00:44.198Z,16.25
2023-04-17T13:03:12.259Z,15.68
2023-04-17T13:05:40.004Z,16.33
2023-04-17T13:08:12.446Z,15.70
2023-04-17T13:10:39.591Z,13.82
2023-04-17T13:13:06.842Z,16.92
2023-04-17T13:15:34.271Z,16.00
2023-04-17T13:18:02.200Z,15.20
2023-04-17T13:20:30.043Z,15.05
2023-04-17T13:22:58.454Z,16.73
2023-04-17T13:25:26.283Z,12.40
2023-04-17T13:27:55.165Z,12.55
2023-04-17T13:30:22.903Z,15.27
2023-04-17T13:32:50.105Z,14.73
2023-04-17T13:35:17.683Z,15.98
2023-04-17T13:37:44.718Z,15.15
2023-04-17T13:40:12.035Z,15.82
2023-04-17T13:42:39.253Z,13.85
2023-04-17T13:45:07.470Z,11.95
2023-04-17T13:47:34.656Z,11.77
2023-04-17T13:50:01.899Z,12.00
2023-04-17T13:52:28.925Z,12.65
2023-04-17T13:54:55.922Z,12.25
2023-04-17T13:57:22.956Z,12.93
2023-04-17T13:59:49.964Z,14.02
2023-04-17T14:02:17.076Z,15.82
2023-04-17T14:04:44.234Z,13.77
2023-04-17T14:07:12.803Z,12.95
2023-04-17T14:09:40.115Z,11.52
2023-04-17T14:12:07.397Z,12.48
2023-04-17T14:14:34.357Z,14.80
2023-04-17T14:17:01.585Z,12.75
2023-04-17T14:19:28.676Z,14.57
2023-04-17T14:21:55.696Z,12.52
2023-04-17T14:24:22.794Z,12.15
2023-04-17T14:26:49.940Z,12.60
2023-04-17T14:29:16.873Z,11.35
2023-04-17T14:31:43.944Z,13.65
2023-04-17T14:34:11.039Z,10.77
2023-04-17T14:36:38.087Z,12.68
2023-04-17T14:39:05.321Z,12.52
2023-04-17T14:41:34.213Z,11.57
2023-04-17T14:44:01.414Z,13.18
2023-04-17T14:46:28.701Z,13.57
2023-04-17T14:48:56.434Z,12.13
2023-04-17T14:51:27.278Z,12.70
2023-04-17T14:53:55.333Z,10.35
2023-04-17T14:56:22.544Z,13.30
2023-04-17T14:58:49.870Z,12.85
2023-04-17T15:01:17.077Z,12.07
2023-04-17T15:03:47.808Z,11.15
2023-04-17T15:06:16.652Z,9.18
2023-04-17T15:08:43.728Z,10.80
2023-04-17T15:11:10.780Z,10.93
2023-04-17T15:13:39.950Z,10.30
2023-04-17T15:16:09.569Z,11.80
2023-04-17T15:18:36.913Z,9.65
2023-04-17T15:21:04.038Z,11.88
2023-04-17T15:23:31.570Z,10.02
2023-04-17T15:25:58.635Z,10.23
2023-04-17T15:28:25.832Z,13.05
2023-04-17T15:30:53.438Z,9.65
2023-04-17T15:33:20.664Z,10.20
2023-04-17T15:35:47.775Z,10.85
2023-04-17T15:38:14.788Z,11.00
2023-04-17T15:40:42.870Z,9.00
2023-04-17T15:43:10.736Z,11.73
2023-04-17T15:45:37.970Z,10.15
2023-04-17T15:48:05.117Z,12.15
2023-04-17T15:50:32.457Z,8.25
2023-04-17T15:52:59.603Z,11.07
2023-04-17T15:55:26.872Z,9.18
2023-04-17T15:57:53.930Z,9.63
2023-04-17T16:00:21.782Z,11.95
2023-04-17T16:02:49.225Z,10.85
2023-04-17T16:05:17.021Z,9.43
2023-04-17T16:07:44.994Z,9.93
2023-04-17T16:10:15.607Z,9.52
2023-04-17T16:12:44.584Z,10.02
2023-04-17T16:15:14.098Z,12.88
2023-04-17T16:17:41.861Z,8.63
2023-04-17T16:20:13.311Z,8.05
2023-04-17T16:22:40.797Z,10.60
2023-04-17T16:25:08.608Z,10.32
2023-04-17T16:27:37.097Z,10.25
2023-04-17T16:30:05.816Z,8.75
2023-04-17T16:32:33.161Z,9.07
2023-04-17T16:35:00.253Z,9.68
2023-04-17T16:37:27.503Z,9.68
2023-04-17T16:39:55.005Z,8.50
2023-04-17T16:42:22.141Z,7.82
2023-04-17T16:44:49.416Z,10.32
2023-04-17T16:47:16.679Z,8.65
2023-04-17T16:49:43.895Z,11.68
2023-04-17T16:52:10.871Z,9.05
2023-04-17T16:54:37.970Z,10.30
2023-04-17T16:57:05.872Z,12.27
2023-04-17T16:59:33.311Z,10.80
2023-04-17T17:02:03.621Z,9.60
2023-04-17T17:04:30.874Z,9.07
2023-04-17T17:06:58.230Z,10.25
2023-04-17T17:09:26.148Z,9.13
2023-04-17T17:11:53.430Z,7.93
2023-04-17T17:14:20.581Z,7.30
2023-04-17T17:16:47.697Z,10.50
2023-04-17T17:19:15.342Z,9.30
2023-04-17T17:21:42.437Z,12.02
2023-04-17T17:24:09.442Z,10.55
2023-04-17T17:26:36.994Z,10.77
2023-04-17T17:29:04.794Z,9.63
2023-04-17T17:31:33.836Z,15.48
2023-04-17T17:34:11.930Z,10.98
2023-04-17T17:36:49.140Z,11.35
2023-04-17T17:39:16.423Z,10.85
2023-04-17T17:41:45.873Z,11.50
2023-04-17T17:44:14.693Z,11.18
2023-04-17T17:46:42.122Z,15.32
2023-04-17T17:49:09.596Z,11.55
2023-04-17T17:51:36.689Z,11.40
2023-04-17T17:54:03.781Z,13.48
2023-04-17T17:56:30.911Z,13.73
2023-04-17T17:58:58.088Z,11.48
2023-04-17T18:01:25.481Z,12.90
2023-04-17T18:03:53.385Z,13.82
2023-04-17T18:06:21.095Z,14.40
2023-04-17T18:08:48.417Z,15.73
2023-04-17T18:11:15.731Z,15.45
2023-04-17T18:13:42.748Z,15.10
2023-04-17T18:16:10.026Z,15.27
2023-04-17T18:18:37.032Z,17.70
2023-04-17T18:21:08.136Z,15.98
2023-04-17T18:23:35.569Z,19.73
2023-04-17T18:26:04.046Z,18.13
2023-04-17T18:28:31.217Z,16.55
2023-04-17T18:30:58.275Z,17.63
2023-04-17T18:33:25.404Z,17.67
2023-04-17T18:35:52.459Z,18.15
2023-04-17T18:38:19.470Z,18.13
2023-04-17T18:40:46.602Z,15.98
2023-04-17T18:43:13.769Z,17.85
2023-04-17T18:45:40.825Z,17.67
2023-04-17T18:48:08.836Z,15.43
2023-04-17T18:50:38.374Z,14.90
2023-04-17T18:53:05.555Z,15.95
2023-04-17T18:55:33.055Z,17.58
2023-04-17T18:58:00.234Z,16.48
2023-04-17T19:00:27.402Z,18.48
2023-04-17T19:02:54.809Z,17.10
2023-04-17T19:05:22.725Z,16.65
2023-04-17T19:07:51.130Z,19.05
2023-04-17T19:10:18.299Z,20.58
2023-04-17T19:12:46.096Z,22.25
2023-04-17T19:15:13.375Z,18.55
2023-04-17T19:17:40.703Z,18.30
2023-04-17T19:20:09.246Z,19.75
2023-04-17T19:22:36.466Z,19.50
2023-04-17T19:25:03.589Z,19.52
2023-04-17T19:27:30.675Z,20.23
2023-04-17T19:29:57.597Z,19.63
2023-04-17T19:32:24.602Z,20.63
2023-04-17T19:34:52.022Z,19.00
2023-04-17T19:37:19.013Z,19.63
2023-04-17T19:39:46.046Z,21.30
2023-04-17T19:42:13.096Z,20.52
2023-04-17T19:44:40.049Z,22.08
2023-04-17T19:47:07.247Z,23.42
2023-04-17T19:49:35.033Z,20.80
2023-04-17T19:52:02.141Z,21.65
2023-04-17T19:54:29.148Z,20.42
2023-04-17T19:56:56.260Z,20.90
2023-04-17T19:59:23.384Z,21.33
2023-04-17T20:01:51.342Z,22.25
2023-04-17T20:04:18.659Z,21.98
2023-04-17T20:06:45.734Z,21.58
2023-04-17T20:09:14.815Z,20.77
2023-04-17T20:11:42.104Z,20.20
2023-04-17T20:14:09.113Z,17.92
2023-04-17T20:16:36.260Z,18.35
2023-04-17T20:19:03.233Z,17.75
2023-04-17T20:21:30.368Z,17.33
2023-04-17T20:23:59.387Z,17.75
2023-04-17T20:26:26.561Z,17.88
2023-04-17T20:28:54.868Z,13.23
2023-04-17T20:31:22.315Z,16.17
2023-04-17T20:33:49.412Z,15.82
2023-04-17T20:36:16.520Z,13.73
2023-04-17T20:38:43.901Z,16.60
2023-04-17T20:41:10.940Z,17.17
2023-04-17T20:43:38.037Z,12.63
2023-04-17T20:46:06.809Z,13.20
2023-04-17T20:48:33.893Z,15.15
2023-04-17T20:51:05.765Z,11.82
2023-04-17T20:53:32.995Z,15.57
2023-04-17T20:56:00.180Z,13.82
2023-04-17T20:58:27.277Z,13.48
2023-04-17T21:01:01.336Z,14.23
2023-04-17T21:03:33.090Z,13.63
2023-04-17T21:06:00.663Z,11.25
2023-04-17T21:08:27.955Z,13.80
2023-04-17T21:10:54.991Z,13.98
2023-04-17T21:13:23.325Z,13.05
2023-04-17T21:15:50.352Z,15.10
2023-04-17T21:18:17.564Z,13.38
2023-04-17T21:20:44.533Z,13.65
2023-04-17T21:23:11.692Z,12.13
2023-04-17T21:25:38.683Z,13.65
2023-04-17T21:28:05.866Z,11.50
2023-04-17T21:30:32.958Z,11.70
2023-04-17T21:33:00.123Z,11.02
2023-04-17T21:35:27.213Z,13.05
2023-04-17T21:37:54.329Z,12.65
2023-04-17T21:40:21.438Z,11.50
2023-04-17T21:42:48.384Z,9.95
2023-04-17T21:45:16.219Z,12.40
2023-04-17T21:47:43.241Z,11.40
2023-04-17T21:50:10.811Z,12.40
2023-04-17T21:52:38.141Z,12.15
2023-04-17T21:55:07.696Z,12.77
2023-04-17T21:57:35.265Z,12.15
2023-04-17T22:00:05.282Z,15.02
2023-04-17T22:02:34.104Z,13.00
2023-04-17T22:05:01.076Z,10.70
2023-04-17T22:07:28.034Z,11.82
2023-04-17T22:09:55.185Z,11.05
2023-04-17T22:12:22.424Z,14.20
2023-04-17T22:14:49.719Z,11.70
2023-04-17T22:17:16.695Z,12.25
2023-04-17T22:20:21.215Z,12.50
2023-04-17T22:22:48.190Z,13.60
2023-04-17T22:26:49.178Z,14.07
2023-04-17T22:30:12.812Z,12.52
2023-04-17T22:33:55.183Z,12.13
2023-04-17T22:37:56.027Z,12.55
2023-04-17T22:40:42.571Z,14.07
2023-04-17T22:44:05.906Z,13.10
2023-04-17T22:47:29.222Z,14.13
2023-04-17T22:50:14.607Z,12.77
2023-04-17T22:53:00.226Z,12.95
2023-04-17T22:56:04.603Z,17.60
2023-04-17T22:59:09.920Z,14.70
2023-04-17T23:01:55.891Z,12.40
2023-04-17T23:04:41.728Z,13.45
2023-04-17T23:07:28.043Z,14.77
2023-04-17T23:09:55.041Z,14.65
2023-04-17T23:12:22.117Z,16.13
2023-04-17T23:14:49.109Z,14.02
2023-04-17T23:17:16.072Z,14.48
2023-04-17T23:19:43.115Z,14.15
2023-04-17T23:22:10.338Z,14.82
2023-04-17T23:24:37.460Z,15.07
2023-04-17T23:27:04.476Z,12.50
2023-04-17T23:29:31.513Z,15.10
2023-04-17T23:31:58.583Z,13.93
2023-04-17T23:34:27.865Z,16.52
2023-04-17T23:36:54.942Z,16.23
2023-04-17T23:39:22.294Z,13.93
2023-04-17T23:41:49.769Z,15.48
2023-04-17T23:44:16.743Z,14.52
2023-04-17T23:46:43.729Z,15.20
2023-04-17T23:49:10.866Z,15.38
2023-04-17T23:51:37.901Z,15.10
2023-04-17T23:54:04.964Z,16.27
2023-04-17T23:56:31.888Z,14.98
2023-04-17T23:58:58.862Z,13.18
